createdAt,value
2017-07-06T00:00:50.751Z,13.90
2017-07-06T00:03:18.443Z,13.80
2017-07-06T00:05:46.092Z,13.80
2017-07-06T00:08:13.745Z,13.80
2017-07-06T00:10:41.426Z,13.70
2017-07-06T00:13:09.841Z,13.70
2017-07-06T00:15:37.494Z,13.70
2017-07-06T00:18:05.272Z,13.70
2017-07-06T00:20:32.999Z,13.70
2017-07-06T00:23:00.658Z,13.50
2017-07-06T00:25:28.337Z,13.50
2017-07-06T00:27:55.991Z,13.50
2017-07-06T00:30:23.652Z,13.50
2017-07-06T00:32:51.336Z,13.50
2017-07-06T00:35:18.973Z,13.40
2017-07-06T00:37:46.623Z,13.40
2017-07-06T00:40:14.485Z,13.40
2017-07-06T00:42:42.126Z,13.40
2017-07-06T00:47:31.562Z,13.40
2017-07-06T00:49:59.217Z,13.40
2017-07-06T00:52:26.864Z,13.50
2017-07-06T00:54:54.628Z,13.30
2017-07-06T00:57:22.290Z,13.30
2017-07-06T00:59:49.965Z,13.20
2017-07-06T01:02:17.640Z,13.20
2017-07-06T01:04:45.289Z,13.20
2017-07-06T01:07:13.181Z,13.10
2017-07-06T01:09:41.643Z,13.10
2017-07-06T01:12:09.300Z,13.00
2017-07-06T01:14:37.716Z,13.10
2017-07-06T01:17:05.389Z,13.00
2017-07-06T01:19:33.064Z,13.10
2017-07-06T01:22:01.478Z,13.00
2017-07-06T01:24:29.154Z,12.90
2017-07-06T01:26:56.807Z,13.10
2017-07-06T01:29:24.479Z,13.00
2017-07-06T01:31:53.070Z,12.90
2017-07-06T01:34:20.719Z,12.90
2017-07-06T01:36:48.353Z,12.90
2017-07-06T01:39:16.041Z,12.90
2017-07-06T01:41:43.673Z,12.90
2017-07-06T01:44:11.330Z,12.90
2017-07-06T01:46:39.001Z,12.90
2017-07-06T01:49:06.623Z,12.90
2017-07-06T01:51:34.311Z,12.90
2017-07-06T01:54:02.752Z,12.90
2017-07-06T01:56:30.380Z,12.80
2017-07-06T01:58:58.045Z,13.00
2017-07-06T02:01:25.667Z,13.00
2017-07-06T02:03:53.468Z,13.00
2017-07-06T02:06:21.912Z,13.10
2017-07-06T02:08:49.540Z,13.00
2017-07-06T02:11:17.216Z,13.00
2017-07-06T02:13:45.608Z,12.80
2017-07-06T02:16:13.388Z,12.70
2017-07-06T02:18:41.062Z,12.80
2017-07-06T02:21:08.695Z,12.80
2017-07-06T02:23:36.360Z,12.80
2017-07-06T02:26:04.101Z,12.70
2017-07-06T02:28:31.747Z,12.70
2017-07-06T02:30:59.412Z,12.60
2017-07-06T02:33:27.812Z,12.50
2017-07-06T02:35:55.479Z,12.50
2017-07-06T02:38:23.328Z,12.60
2017-07-06T02:40:50.969Z,12.70
2017-07-06T02:43:18.637Z,12.60
2017-07-06T02:45:46.286Z,12.60
2017-07-06T02:48:14.140Z,12.50
2017-07-06T02:50:41.780Z,12.50
2017-07-06T02:53:09.418Z,12.40
2017-07-06T02:55:37.075Z,12.50
2017-07-06T02:58:04.703Z,12.50
2017-07-06T03:00:32.368Z,12.50
2017-07-06T03:03:00.174Z,12.50
2017-07-06T03:05:27.799Z,12.50
2017-07-06T04:29:53.490Z,12.40
2017-07-06T04:32:21.132Z,13.70
2017-07-06T04:34:48.791Z,13.80
2017-07-06T04:37:16.416Z,14.00
2017-07-06T04:39:44.085Z,14.10
2017-07-06T04:42:19.356Z,14.30
2017-07-06T04:44:47.751Z,14.60
2017-07-06T04:47:15.415Z,14.50
2017-07-06T04:49:43.073Z,14.80
2017-07-06T04:52:10.831Z,15.00
2017-07-06T04:54:38.502Z,15.10
2017-07-06T04:57:06.143Z,15.30
2017-07-06T04:59:33.816Z,15.60
2017-07-06T05:02:02.206Z,15.80
2017-07-06T05:04:29.859Z,15.70
2017-07-06T05:06:57.535Z,16.00
2017-07-06T05:09:25.165Z,16.10
2017-07-06T05:11:52.876Z,16.30
2017-07-06T05:14:20.513Z,16.40
2017-07-06T05:16:48.917Z,16.80
2017-07-06T05:19:16.585Z,16.70
2017-07-06T05:21:44.358Z,17.00
2017-07-06T05:24:12.840Z,17.40
2017-07-06T05:26:41.235Z,17.50
2017-07-06T05:29:08.868Z,17.40
2017-07-06T05:31:36.531Z,17.60
2017-07-06T05:34:04.155Z,17.60
2017-07-06T05:36:31.812Z,17.90
2017-07-06T05:38:59.448Z,18.00
2017-07-06T05:41:27.171Z,18.20
2017-07-06T05:43:54.862Z,18.40
2017-07-06T05:46:22.492Z,18.60
2017-07-06T05:48:50.159Z,18.90
2017-07-06T05:51:17.861Z,18.90
2017-07-06T05:53:45.472Z,19.10
2017-07-06T05:56:13.140Z,19.30
2017-07-06T05:58:40.741Z,19.50
2017-07-06T06:01:08.382Z,19.60
2017-07-06T06:03:36.752Z,20.10
2017-07-06T06:06:04.409Z,20.00
2017-07-06T06:08:32.049Z,20.40
2017-07-06T06:10:59.689Z,20.70
2017-07-06T06:13:27.327Z,21.20
2017-07-06T06:15:55.707Z,22.10
2017-07-06T06:18:23.547Z,22.00
2017-07-06T06:20:51.951Z,22.20
2017-07-06T06:23:19.553Z,22.10
2017-07-06T06:25:47.961Z,21.70
2017-07-06T06:28:15.579Z,21.60
2017-07-06T06:30:43.377Z,21.80
2017-07-06T06:33:11.023Z,21.90
2017-07-06T06:35:38.658Z,22.00
2017-07-06T06:38:06.335Z,22.00
2017-07-06T06:40:34.078Z,22.40
2017-07-06T06:43:01.706Z,23.00
2017-07-06T06:45:29.341Z,23.20
2017-07-06T06:47:57.200Z,23.90
2017-07-06T06:50:24.846Z,24.10
2017-07-06T06:52:52.506Z,24.60
2017-07-06T06:55:20.105Z,24.50
2017-07-06T06:57:47.728Z,24.30
2017-07-06T07:00:16.123Z,23.80
2017-07-06T07:02:43.768Z,23.70
2017-07-06T07:05:11.377Z,23.90
2017-07-06T07:07:38.977Z,24.20
2017-07-06T07:10:06.634Z,23.70
2017-07-06T07:12:34.300Z,23.90
2017-07-06T07:15:01.932Z,24.30
2017-07-06T07:17:29.527Z,24.50
2017-07-06T07:19:57.125Z,24.80
2017-07-06T07:22:24.767Z,25.60
2017-07-06T07:24:52.444Z,25.60
2017-07-06T07:27:20.191Z,25.50
2017-07-06T07:29:47.795Z,25.50
2017-07-06T07:32:15.413Z,26.70
2017-07-06T07:34:43.071Z,27.40
2017-07-06T07:37:10.681Z,27.50
2017-07-06T07:39:38.328Z,27.50
2017-07-06T07:42:05.955Z,27.70
2017-07-06T07:44:33.575Z,27.80
2017-07-06T07:47:01.208Z,27.90
2017-07-06T07:49:28.871Z,27.80
2017-07-06T07:51:56.494Z,28.20
2017-07-06T07:54:24.096Z,28.40
2017-07-06T07:56:52.493Z,28.60
2017-07-06T07:59:20.195Z,28.60
2017-07-06T08:01:47.813Z,28.60
2017-07-06T08:04:15.455Z,29.20
2017-07-06T08:06:43.256Z,29.40
2017-07-06T08:09:10.864Z,29.10
2017-07-06T08:11:38.500Z,27.60
2017-07-06T08:14:06.106Z,27.60
2017-07-06T08:16:33.748Z,28.80
2017-07-06T08:19:01.356Z,28.90
2017-07-06T08:21:28.969Z,28.50
2017-07-06T08:23:56.608Z,28.30
2017-07-06T08:26:24.217Z,28.90
2017-07-06T08:28:51.932Z,29.10
2017-07-06T08:31:19.536Z,29.10
2017-07-06T08:33:47.151Z,29.20
2017-07-06T08:36:14.785Z,29.30
2017-07-06T08:38:42.424Z,29.50
2017-07-06T08:41:10.122Z,30.00
2017-07-06T08:43:38.501Z,29.50
2017-07-06T08:46:06.096Z,29.50
2017-07-06T08:48:33.737Z,29.90
2017-07-06T08:51:01.348Z,30.00
2017-07-06T08:53:28.983Z,29.90
2017-07-06T08:55:56.617Z,29.90
2017-07-06T08:58:24.220Z,29.80
2017-07-06T09:00:51.854Z,30.00
2017-07-06T09:03:19.468Z,30.60
2017-07-06T09:05:47.120Z,31.70
2017-07-06T09:08:14.742Z,32.10
2017-07-06T09:10:43.253Z,32.20
2017-07-06T09:13:10.883Z,32.10
2017-07-06T09:15:38.483Z,32.50
2017-07-06T09:18:06.152Z,32.60
2017-07-06T09:20:34.516Z,32.30
2017-07-06T09:23:02.114Z,32.20
2017-07-06T09:25:29.744Z,32.20
2017-07-06T09:27:57.366Z,31.10
2017-07-06T09:30:25.002Z,29.60
2017-07-06T09:32:52.621Z,28.90
2017-07-06T09:35:20.249Z,28.50
2017-07-06T09:37:47.881Z,28.30
2017-07-06T09:40:15.489Z,28.60
2017-07-06T09:42:43.227Z,28.30
2017-07-06T09:45:11.609Z,28.40
2017-07-06T09:47:39.215Z,28.30
2017-07-06T09:50:06.866Z,28.70
2017-07-06T09:52:34.527Z,29.40
2017-07-06T09:55:03.125Z,30.50
2017-07-06T09:57:30.737Z,30.40
2017-07-06T09:59:59.107Z,30.60
2017-07-06T10:02:27.509Z,30.40
2017-07-06T10:04:55.130Z,30.40
2017-07-06T10:07:22.791Z,31.10
2017-07-06T10:09:50.399Z,31.70
2017-07-06T10:12:18.017Z,31.70
2017-07-06T10:14:45.772Z,31.50
2017-07-06T10:17:13.509Z,32.20
2017-07-06T10:19:41.158Z,31.90
2017-07-06T10:22:08.764Z,30.70
2017-07-06T10:24:36.762Z,30.30
2017-07-06T10:27:04.495Z,29.30
2017-07-06T10:29:32.125Z,29.00
2017-07-06T10:31:59.771Z,29.00
2017-07-06T10:34:27.407Z,28.50
2017-07-06T10:36:55.021Z,28.80
2017-07-06T10:39:23.540Z,28.10
2017-07-06T10:41:51.154Z,28.10
2017-07-06T10:44:18.807Z,29.00
2017-07-06T10:46:46.425Z,29.10
2017-07-06T10:49:14.805Z,28.80
2017-07-06T10:51:43.479Z,29.70
2017-07-06T10:54:11.846Z,29.70
2017-07-06T10:56:39.483Z,29.60
2017-07-06T10:59:07.881Z,29.10
2017-07-06T11:01:35.512Z,29.00
2017-07-06T11:04:03.388Z,29.10
2017-07-06T11:06:30.992Z,28.90
2017-07-06T11:11:33.483Z,28.10
2017-07-06T11:14:01.121Z,27.50
2017-07-06T11:16:28.811Z,27.50
2017-07-06T11:18:56.430Z,27.60
2017-07-06T11:21:24.124Z,27.20
2017-07-06T11:23:51.738Z,26.90
2017-07-06T11:26:19.381Z,26.60
2017-07-06T11:28:46.989Z,26.50
2017-07-06T11:31:14.622Z,27.00
2017-07-06T11:33:42.283Z,27.90
2017-07-06T11:36:10.025Z,27.80
2017-07-06T11:38:37.734Z,28.00
2017-07-06T11:41:05.350Z,28.50
2017-07-06T11:43:33.107Z,28.60
2017-07-06T11:46:00.764Z,28.50
2017-07-06T11:48:28.380Z,28.60
2017-07-06T11:50:56.030Z,28.10
2017-07-06T11:53:23.627Z,27.60
2017-07-06T11:55:51.233Z,27.50
2017-07-06T11:58:18.898Z,27.80
2017-07-06T12:00:46.506Z,27.90
2017-07-06T12:03:14.323Z,27.70
2017-07-06T12:05:42.699Z,27.10
2017-07-06T12:08:11.074Z,27.20
2017-07-06T12:10:38.721Z,27.10
2017-07-06T12:13:06.326Z,27.10
2017-07-06T12:15:34.112Z,26.80
2017-07-06T12:18:02.532Z,26.80
2017-07-06T12:20:30.152Z,26.70
2017-07-06T12:22:57.793Z,26.70
2017-07-06T12:25:25.402Z,26.60
2017-07-06T12:27:53.808Z,27.20
2017-07-06T12:30:21.411Z,27.10
2017-07-06T12:32:49.028Z,27.20
2017-07-06T12:35:16.664Z,27.20
2017-07-06T12:37:44.441Z,27.20
2017-07-06T12:40:12.077Z,27.30
2017-07-06T12:42:39.686Z,27.40
2017-07-06T12:45:07.294Z,27.40
2017-07-06T12:47:34.941Z,27.30
2017-07-06T12:50:03.426Z,27.50
2017-07-06T12:52:31.073Z,27.40
2017-07-06T12:54:58.676Z,27.70
2017-07-06T12:57:26.286Z,27.60
2017-07-06T12:59:54.097Z,27.70
2017-07-06T13:02:22.591Z,27.50
2017-07-06T13:04:50.220Z,27.50
2017-07-06T13:07:17.831Z,27.60
2017-07-06T13:09:45.427Z,27.60
2017-07-06T13:12:13.100Z,27.70
2017-07-06T13:14:40.781Z,27.40
2017-07-06T13:17:08.409Z,27.00
2017-07-06T13:19:36.015Z,26.60
2017-07-06T13:22:03.670Z,26.20
2017-07-06T13:24:31.301Z,26.10
2017-07-06T13:26:59.109Z,26.00
2017-07-06T13:29:26.768Z,25.90
2017-07-06T13:31:55.150Z,26.20
2017-07-06T13:34:22.896Z,26.10
2017-07-06T13:36:50.521Z,26.40
2017-07-06T13:39:18.157Z,26.60
2017-07-06T13:41:45.806Z,26.60
2017-07-06T13:44:13.461Z,26.70
2017-07-06T13:46:41.831Z,27.00
2017-07-06T13:49:10.261Z,27.20
2017-07-06T13:51:37.886Z,27.10
2017-07-06T13:54:05.573Z,27.00
2017-07-06T13:56:33.230Z,27.00
2017-07-06T13:59:00.885Z,27.10
2017-07-06T14:01:28.527Z,27.10
2017-07-06T14:03:56.902Z,27.10
2017-07-06T14:06:24.559Z,27.00
2017-07-06T14:08:52.183Z,27.30
2017-07-06T14:11:19.786Z,27.20
2017-07-06T14:13:47.414Z,27.40
2017-07-06T14:16:15.031Z,27.30
2017-07-06T14:18:43.493Z,27.20
2017-07-06T14:21:11.864Z,27.20
2017-07-06T14:23:39.496Z,27.10
2017-07-06T14:26:07.903Z,27.10
2017-07-06T14:28:35.514Z,27.00
2017-07-06T14:31:03.171Z,27.00
2017-07-06T14:33:31.539Z,26.60
2017-07-06T14:35:59.139Z,26.60
2017-07-06T14:38:26.778Z,26.20
2017-07-06T14:40:54.448Z,26.20
2017-07-06T14:43:22.096Z,26.20
2017-07-06T14:45:49.709Z,26.50
2017-07-06T14:48:17.333Z,26.50
2017-07-06T14:50:44.976Z,26.50
2017-07-06T14:53:12.594Z,26.50
2017-07-06T14:55:41.005Z,26.50
2017-07-06T14:58:08.632Z,26.50
2017-07-06T15:00:36.247Z,26.50
2017-07-06T15:03:04.668Z,26.50
2017-07-06T15:05:32.280Z,26.40
2017-07-06T15:08:00.174Z,26.30
2017-07-06T15:10:27.781Z,26.30
2017-07-06T15:12:55.378Z,26.20
2017-07-06T15:15:23.102Z,26.10
2017-07-06T15:17:50.710Z,26.20
2017-07-06T15:20:18.356Z,26.30
2017-07-06T15:22:45.962Z,26.30
2017-07-06T15:25:13.568Z,26.20
2017-07-06T15:27:41.207Z,26.20
2017-07-06T15:30:08.811Z,26.20
2017-07-06T15:32:36.488Z,26.20
2017-07-06T15:35:04.155Z,26.20
2017-07-06T15:37:31.772Z,26.20
2017-07-06T15:39:59.411Z,26.00
2017-07-06T15:42:27.847Z,26.00
2017-07-06T15:44:55.509Z,25.90
2017-07-06T15:47:23.125Z,25.90
2017-07-06T15:49:50.746Z,25.90
2017-07-06T15:52:18.398Z,25.90
2017-07-06T15:54:46.016Z,25.90
2017-07-06T15:57:13.676Z,25.90
2017-07-06T15:59:41.293Z,25.90
2017-07-06T16:02:08.908Z,25.80
2017-07-06T16:04:36.545Z,25.80
2017-07-06T16:07:04.202Z,25.70
2017-07-06T16:09:31.861Z,25.70
2017-07-06T16:11:59.467Z,25.60
2017-07-06T16:14:27.083Z,25.60
2017-07-06T16:16:54.727Z,25.60
2017-07-06T16:19:23.123Z,25.60
2017-07-06T16:21:50.760Z,25.60
2017-07-06T16:24:18.454Z,25.70
2017-07-06T16:26:46.077Z,25.70
2017-07-06T16:29:13.715Z,25.60
2017-07-06T16:31:41.346Z,25.60
2017-07-06T16:34:08.989Z,25.60
2017-07-06T16:36:36.605Z,25.60
2017-07-06T16:39:04.241Z,25.50
2017-07-06T16:41:31.989Z,25.50
2017-07-06T16:43:59.654Z,25.40
2017-07-06T16:46:28.067Z,25.40
2017-07-06T16:48:55.672Z,25.40
2017-07-06T16:51:24.131Z,25.40
2017-07-06T16:53:52.574Z,25.30
2017-07-06T16:56:20.178Z,25.30
2017-07-06T16:58:47.841Z,25.30
2017-07-06T17:01:15.452Z,25.30
2017-07-06T17:03:43.156Z,25.30
2017-07-06T17:06:10.809Z,25.30
2017-07-06T17:08:38.420Z,25.20
2017-07-06T17:11:06.065Z,25.30
2017-07-06T17:13:33.695Z,25.30
2017-07-06T17:16:01.315Z,25.30
2017-07-06T17:18:29.760Z,25.10
2017-07-06T17:20:57.382Z,25.10
2017-07-06T17:23:25.824Z,25.10
2017-07-06T17:25:53.494Z,25.00
2017-07-06T17:28:21.110Z,25.00
2017-07-06T17:30:48.749Z,25.10
2017-07-06T17:33:16.356Z,25.10
2017-07-06T17:35:44.045Z,25.10
2017-07-06T17:38:11.670Z,25.10
2017-07-06T17:40:40.043Z,25.00
2017-07-06T17:43:08.457Z,24.80
2017-07-06T17:45:36.220Z,24.80
2017-07-06T17:48:03.859Z,24.70
2017-07-06T17:50:31.459Z,24.60
2017-07-06T17:52:59.095Z,24.60
2017-07-06T17:55:26.731Z,24.60
2017-07-06T17:57:55.110Z,24.50
2017-07-06T18:00:22.826Z,24.50
2017-07-06T18:02:50.790Z,24.50
2017-07-06T18:05:18.412Z,24.50
2017-07-06T18:07:46.060Z,24.40
2017-07-06T18:10:13.722Z,24.30
2017-07-06T18:12:41.359Z,24.40
2017-07-06T18:15:08.968Z,24.30
2017-07-06T18:17:36.571Z,24.20
2017-07-06T18:20:04.967Z,24.20
2017-07-06T18:22:32.571Z,24.10
2017-07-06T18:25:00.978Z,24.00
2017-07-06T18:27:28.599Z,24.00
2017-07-06T18:29:56.218Z,24.00
2017-07-06T18:32:23.865Z,23.90
2017-07-06T18:34:51.469Z,23.80
2017-07-06T18:37:19.149Z,23.70
2017-07-06T18:39:46.781Z,23.60
2017-07-06T18:42:14.379Z,23.50
2017-07-06T18:44:42.027Z,23.40
2017-07-06T18:47:09.641Z,23.40
2017-07-06T18:49:37.278Z,23.30
2017-07-06T18:52:04.912Z,23.20
2017-07-06T18:54:32.568Z,23.20
2017-07-06T18:57:00.214Z,23.00
2017-07-06T18:59:27.835Z,23.00
2017-07-06T19:01:55.489Z,22.90
2017-07-06T19:04:23.119Z,22.90
2017-07-06T19:06:50.755Z,22.80
2017-07-06T19:09:18.398Z,22.70
2017-07-06T19:11:46.001Z,22.70
2017-07-06T19:14:13.655Z,22.60
2017-07-06T19:16:41.267Z,22.60
2017-07-06T19:19:08.879Z,22.50
2017-07-06T19:21:36.519Z,22.40
2017-07-06T19:24:04.359Z,22.30
2017-07-06T19:26:32.824Z,22.30
2017-07-06T19:29:00.433Z,22.20
2017-07-06T19:31:28.045Z,22.20
2017-07-06T19:33:55.700Z,22.10
2017-07-06T19:36:23.379Z,22.00
2017-07-06T19:38:51.024Z,21.90
2017-07-06T19:41:18.632Z,21.80
2017-07-06T19:43:46.246Z,21.80
2017-07-06T19:46:14.646Z,21.70
2017-07-06T19:48:42.258Z,21.60
2017-07-06T19:51:10.665Z,21.60
2017-07-06T19:53:38.264Z,21.50
2017-07-06T19:56:06.647Z,21.40
2017-07-06T19:58:34.392Z,21.40
2017-07-06T20:01:01.995Z,21.40
2017-07-06T20:03:29.645Z,21.40
2017-07-06T20:05:57.262Z,21.40
2017-07-06T20:08:24.877Z,21.40
2017-07-06T20:10:52.549Z,21.30
2017-07-06T20:13:20.182Z,21.30
2017-07-06T20:15:47.812Z,21.20
2017-07-06T20:18:15.420Z,21.10
2017-07-06T20:20:43.075Z,21.10
2017-07-06T20:23:10.730Z,21.10
2017-07-06T20:25:38.342Z,21.10
2017-07-06T20:28:05.997Z,21.00
2017-07-06T20:30:33.623Z,20.90
2017-07-06T20:33:01.241Z,20.80
2017-07-06T20:35:28.885Z,20.80
2017-07-06T20:37:56.492Z,20.80
2017-07-06T20:40:24.135Z,20.70
2017-07-06T20:42:51.743Z,20.70
2017-07-06T20:45:19.362Z,20.60
2017-07-06T20:47:47.759Z,20.60
2017-07-06T20:50:15.371Z,20.50
2017-07-06T20:52:43.786Z,20.50
2017-07-06T20:55:11.391Z,20.50
2017-07-06T20:57:38.998Z,20.50
2017-07-06T21:00:06.637Z,20.50
2017-07-06T21:02:34.320Z,20.50
2017-07-06T21:05:02.723Z,20.50
2017-07-06T21:07:30.333Z,20.40
2017-07-06T21:09:58.708Z,20.40
2017-07-06T21:12:26.355Z,20.30
2017-07-06T21:14:54.115Z,20.30
2017-07-06T21:17:21.742Z,20.30
2017-07-06T21:19:50.107Z,20.30
2017-07-06T21:22:17.711Z,20.20
2017-07-06T21:24:45.347Z,20.30
2017-07-06T21:27:13.052Z,20.20
2017-07-06T21:29:40.692Z,20.20
2017-07-06T21:32:08.308Z,20.10
2017-07-06T21:34:35.926Z,20.30
2017-07-06T21:37:03.567Z,20.30
2017-07-06T21:39:31.174Z,20.40
2017-07-06T21:41:59.589Z,20.40
2017-07-06T21:44:27.200Z,20.40
2017-07-06T21:46:54.813Z,20.40
2017-07-06T21:49:23.462Z,20.40
2017-07-06T21:51:51.064Z,20.40
2017-07-06T21:54:18.772Z,20.40
2017-07-06T21:56:46.379Z,20.40
2017-07-06T21:59:14.069Z,20.40
2017-07-06T22:01:42.516Z,20.30
2017-07-06T22:04:10.176Z,20.20
2017-07-06T22:06:37.826Z,20.30
2017-07-06T22:09:05.438Z,20.30
2017-07-06T22:11:33.067Z,20.30
2017-07-06T22:14:00.707Z,20.30
2017-07-06T22:16:28.308Z,20.30
2017-07-06T22:18:55.998Z,20.30
2017-07-06T22:21:23.636Z,20.20
2017-07-06T22:23:51.252Z,20.20
2017-07-06T22:26:19.676Z,20.30
2017-07-06T22:28:47.284Z,20.20
2017-07-06T22:31:14.905Z,20.20
2017-07-06T22:33:42.582Z,20.20
2017-07-06T22:36:10.192Z,20.20
2017-07-06T22:38:37.839Z,20.20
2017-07-06T22:41:05.463Z,20.30
2017-07-06T22:43:33.105Z,20.30
2017-07-06T22:46:00.756Z,20.30
2017-07-06T22:48:28.390Z,20.30
2017-07-06T22:50:56.065Z,20.30
2017-07-06T22:53:23.680Z,20.30
2017-07-06T22:55:51.297Z,20.40
2017-07-06T22:58:18.994Z,20.40
2017-07-06T23:00:46.600Z,20.40
2017-07-06T23:03:14.319Z,20.40
2017-07-06T23:05:41.933Z,20.50
2017-07-06T23:08:09.557Z,20.40
2017-07-06T23:10:37.209Z,20.40
2017-07-06T23:13:04.811Z,20.40
2017-07-06T23:15:33.307Z,20.50
2017-07-06T23:18:00.924Z,20.40
2017-07-06T23:20:29.320Z,20.60
2017-07-06T23:22:56.960Z,20.50
2017-07-06T23:25:24.604Z,20.50
2017-07-06T23:27:52.259Z,20.50
2017-07-06T23:30:19.957Z,20.50
2017-07-06T23:32:47.559Z,20.60
2017-07-06T23:35:15.205Z,20.60
2017-07-06T23:37:43.060Z,20.60
2017-07-06T23:40:10.704Z,20.60
2017-07-06T23:42:38.313Z,20.70
2017-07-06T23:45:06.683Z,20.70
2017-07-06T23:47:34.435Z,20.60
2017-07-06T23:50:02.034Z,20.70
2017-07-06T23:52:29.676Z,20.80
2017-07-06T23:54:57.286Z,20.80
2017-07-06T23:57:24.897Z,20.90
2017-07-06T23:59:53.571Z,20.90
